Time;durP1;ratioP1;P1;durP2;ratioP2;P2;SDS_P1;SDS_P2;PMS_P1;PMS_P2;Temp;Humidity;BMP_temperature;BMP_pressure;BME280_temperature;BME280_humidity;BME280_pressure;Samples;Min_cycle;Max_cycle;Signal;HPM_P1;HPM_P2
2022/09/22 00:01:04;;;;;;;5.67;4.70;;;9.80;99.90;;;;;;5035427;28;20219;-79
2022/09/22 00:03:33;;;;;;;6.60;5.13;;;9.80;99.90;;;;;;5030515;28;20653;-79
2022/09/22 00:06:02;;;;;;;5.67;4.70;;;9.90;99.90;;;;;;5031324;28;20222;-79
2022/09/22 00:08:34;;;;;;;7.03;4.93;;;9.80;99.90;;;;;;5047334;28;20406;-80
2022/09/22 00:11:03;;;;;;;7.23;5.70;;;9.90;99.90;;;;;;5052301;28;20227;-79
2022/09/22 00:13:31;;;;;;;6.47;5.37;;;9.90;99.90;;;;;;5027271;28;20211;-80
2022/09/22 00:16:00;;;;;;;9.33;5.50;;;9.80;99.90;;;;;;5030352;28;20203;-78
2022/09/22 00:18:28;;;;;;;5.27;4.77;;;9.70;99.90;;;;;;5034027;28;20199;-79
2022/09/22 00:20:56;;;;;;;5.87;5.23;;;9.60;99.90;;;;;;5047121;28;20200;-78
2022/09/22 00:23:27;;;;;;;8.43;5.67;;;9.60;99.90;;;;;;5022197;28;20792;-80
2022/09/22 00:25:58;;;;;;;6.50;5.33;;;9.70;99.90;;;;;;5023546;28;20195;-80
2022/09/22 00:28:26;;;;;;;6.00;4.83;;;9.50;99.90;;;;;;5028182;28;20211;-78
2022/09/22 00:30:53;;;;;;;6.90;5.20;;;9.50;99.90;;;;;;5028056;28;20203;-80
2022/09/22 00:33:21;;;;;;;5.50;4.70;;;9.40;99.90;;;;;;5028910;28;20203;-79
2022/09/22 00:35:57;;;;;;;6.63;5.27;;;9.60;99.90;;;;;;5036181;28;20190;-79
2022/09/22 00:38:25;;;;;;;7.20;5.17;;;9.60;99.90;;;;;;5031397;28;20202;-79
2022/09/22 00:40:52;;;;;;;6.67;5.30;;;9.60;99.90;;;;;;5035781;28;20193;-79
2022/09/22 00:43:24;;;;;;;6.83;5.00;;;9.50;99.90;;;;;;5028819;28;20215;-79
2022/09/22 00:45:54;;;;;;;7.97;5.80;;;9.60;99.90;;;;;;5050404;28;20203;-79
2022/09/22 00:48:24;;;;;;;8.23;5.10;;;9.40;99.90;;;;;;5030690;28;20214;-79
2022/09/22 00:50:54;;;;;;;5.67;4.83;;;9.30;99.90;;;;;;5026307;28;20202;-79
2022/09/22 00:53:24;;;;;;;6.47;4.73;;;9.30;99.90;;;;;;5034115;28;20557;-79
2022/09/22 00:55:55;;;;;;;6.23;4.90;;;9.40;99.90;;;;;;5027286;28;20287;-79
2022/09/22 00:58:30;;;;;;;6.27;4.80;;;9.40;99.90;;;;;;5023296;28;20203;-79
2022/09/22 01:00:58;;;;;;;8.57;5.20;;;9.30;99.90;;;;;;5026794;28;20218;-78
2022/09/22 01:03:28;;;;;;;6.30;4.73;;;9.50;99.90;;;;;;5043582;28;20203;-79
2022/09/22 01:05:58;;;;;;;7.07;5.07;;;9.40;99.90;;;;;;5028618;28;20213;-79
2022/09/22 01:08:26;;;;;;;6.33;4.30;;;9.50;99.90;;;;;;5031602;28;20231;-79
2022/09/22 01:10:54;;;;;;;4.40;4.00;;;9.60;99.90;;;;;;5025344;28;20203;-79
2022/09/22 01:13:28;;;;;;;7.70;4.70;;;9.70;99.90;;;;;;5030645;28;20218;-80
2022/09/22 01:16:18;;;;;;;5.00;4.50;;;9.60;99.90;;;;;;5029663;28;20203;-79
2022/09/22 01:18:55;;;;;;;8.60;4.30;;;9.40;99.90;;;;;;5029225;28;20206;-80
2022/09/22 01:21:33;;;;;;;4.33;3.93;;;9.50;99.90;;;;;;5027964;28;20226;-79
2022/09/22 01:24:32;;;;;;;4.50;4.10;;;9.60;99.90;;;;;;5025178;28;20210;-79
2022/09/22 01:27:27;;;;;;;4.67;4.20;;;9.60;99.90;;;;;;5033122;28;20586;-78
2022/09/22 01:30:10;;;;;;;7.03;4.13;;;9.50;99.90;;;;;;5033828;28;20202;-80
2022/09/22 01:32:47;;;;;;;5.23;3.97;;;9.50;99.90;;;;;;5033623;28;20262;-78
2022/09/22 01:35:21;;;;;;;4.63;3.90;;;9.50;99.90;;;;;;5028831;28;20214;-80
2022/09/22 01:37:58;;;;;;;6.63;4.07;;;9.60;99.90;;;;;;5032021;28;20210;-79
2022/09/22 01:40:33;;;;;;;6.30;4.40;;;9.60;99.90;;;;;;5031247;28;20202;-79
2022/09/22 01:43:12;;;;;;;5.73;3.83;;;9.50;99.90;;;;;;5025151;28;20584;-80
2022/09/22 01:45:43;;;;;;;7.10;4.03;;;9.50;99.90;;;;;;5036452;28;20557;-79
2022/09/22 01:48:16;;;;;;;4.73;3.77;;;9.60;99.90;;;;;;5032076;28;20219;-78
2022/09/22 01:50:49;;;;;;;6.73;4.10;;;9.60;99.90;;;;;;5028623;28;20203;-78
2022/09/22 01:53:19;;;;;;;6.80;4.00;;;9.50;99.90;;;;;;5043504;28;20203;-79
2022/09/22 01:55:51;;;;;;;5.33;3.97;;;9.50;99.90;;;;;;5025987;28;20191;-79
2022/09/22 01:58:24;;;;;;;6.43;3.77;;;9.60;99.90;;;;;;5023767;28;20271;-79
2022/09/22 02:00:58;;;;;;;5.37;3.77;;;9.50;99.90;;;;;;5024189;28;20669;-79
2022/09/22 02:03:34;;;;;;;6.07;3.60;;;9.50;99.90;;;;;;5047200;28;20205;-80
2022/09/22 02:06:08;;;;;;;4.77;3.67;;;9.50;99.90;;;;;;5031901;28;20195;-79
2022/09/22 02:08:41;;;;;;;5.40;3.67;;;9.40;99.90;;;;;;5023397;28;20226;-79
2022/09/22 02:11:12;;;;;;;4.13;3.73;;;9.40;99.90;;;;;;5028156;28;20217;-79
2022/09/22 02:13:40;;;;;;;5.70;3.73;;;9.40;99.90;;;;;;5028926;28;20199;-80
2022/09/22 02:16:10;;;;;;;5.03;4.53;;;9.40;99.90;;;;;;5027453;28;20192;-79
2022/09/22 02:18:43;;;;;;;5.43;3.70;;;9.50;99.90;;;;;;5029116;28;20214;-79
2022/09/22 02:21:12;;;;;;;4.83;3.53;;;9.40;99.90;;;;;;5038997;28;20211;-79
2022/09/22 02:23:39;;;;;;;4.37;3.57;;;9.50;99.90;;;;;;5029871;28;20199;-79
2022/09/22 02:26:08;;;;;;;4.83;3.73;;;9.50;99.90;;;;;;5020463;28;20396;-80
2022/09/22 02:28:38;;;;;;;4.03;3.33;;;9.30;99.90;;;;;;5022486;28;20211;-79
2022/09/22 02:31:09;;;;;;;4.80;3.43;;;9.40;99.90;;;;;;5022971;28;20704;-80
2022/09/22 02:33:40;;;;;;;5.07;3.17;;;9.40;99.90;;;;;;5026121;28;20195;-79
2022/09/22 02:36:25;;;;;;;4.03;3.43;;;9.30;99.90;;;;;;5034439;28;20206;-80
2022/09/22 02:38:59;;;;;;;6.33;4.33;;;9.10;99.90;;;;;;5025594;28;20679;-79
2022/09/22 02:41:36;;;;;;;4.17;3.77;;;9.10;99.90;;;;;;5027029;28;20225;-79
2022/09/22 02:44:13;;;;;;;6.33;3.23;;;8.90;99.90;;;;;;5023818;28;20213;-81
2022/09/22 02:46:46;;;;;;;4.23;3.50;;;8.90;99.90;;;;;;5031043;28;20202;-79
2022/09/22 02:49:17;;;;;;;4.40;3.47;;;9.00;99.90;;;;;;5031686;28;20225;-79
2022/09/22 02:51:48;;;;;;;5.23;3.60;;;9.00;99.90;;;;;;5028109;28;20237;-79
2022/09/22 02:54:15;;;;;;;4.97;3.70;;;9.20;99.90;;;;;;5028436;28;20215;-80
2022/09/22 02:56:43;;;;;;;6.60;4.17;;;9.20;99.90;;;;;;5023473;28;20207;-79
2022/09/22 02:59:11;;;;;;;5.13;3.73;;;9.30;99.90;;;;;;5034296;28;20665;-79
2022/09/22 03:01:39;;;;;;;5.20;4.03;;;9.40;99.90;;;;;;5024701;28;20227;-79
2022/09/22 03:04:10;;;;;;;4.50;3.57;;;9.40;99.90;;;;;;5046735;28;20203;-79
2022/09/22 03:06:37;;;;;;;5.03;3.97;;;9.30;99.90;;;;;;5031436;28;20195;-79
2022/09/22 03:09:05;;;;;;;4.83;3.70;;;9.20;99.90;;;;;;5032691;28;20222;-84
2022/09/22 03:11:32;;;;;;;4.43;3.20;;;9.00;99.90;;;;;;5033745;28;20218;-84
2022/09/22 03:14:00;;;;;;;3.47;3.10;;;9.00;99.90;;;;;;5027648;28;20214;-81
2022/09/22 03:16:27;;;;;;;6.87;3.77;;;9.00;99.90;;;;;;5028898;28;20203;-79
2022/09/22 03:18:56;;;;;;;4.63;3.73;;;8.90;99.90;;;;;;5026005;28;20198;-79
2022/09/22 03:21:24;;;;;;;4.20;3.43;;;8.70;99.90;;;;;;5029578;28;20227;-79
2022/09/22 03:23:52;;;;;;;4.50;3.40;;;8.80;99.90;;;;;;5027006;28;20206;-79
2022/09/22 03:26:19;;;;;;;6.03;3.07;;;8.80;99.90;;;;;;5020972;28;20207;-79
2022/09/22 03:28:47;;;;;;;4.57;3.23;;;8.90;99.90;;;;;;5042440;28;20230;-80
2022/09/22 03:31:14;;;;;;;3.67;3.30;;;8.80;99.90;;;;;;5024470;28;20241;-80
2022/09/22 03:33:42;;;;;;;5.80;3.10;;;8.90;99.90;;;;;;5024804;28;20191;-79
2022/09/22 03:36:09;;;;;;;4.87;3.10;;;8.80;99.90;;;;;;5027520;28;20203;-80
2022/09/22 03:38:38;;;;;;;4.77;3.57;;;8.80;99.90;;;;;;5021244;28;20318;-81
2022/09/22 03:41:06;;;;;;;3.17;2.87;;;8.80;99.90;;;;;;5024830;28;20216;-81
2022/09/22 03:43:33;;;;;;;4.10;3.70;;;8.90;99.90;;;;;;5021565;28;20211;-82
2022/09/22 03:46:02;;;;;;;4.60;3.50;;;8.80;99.90;;;;;;5038422;28;20195;-79
2022/09/22 03:48:30;;;;;;;6.00;5.00;;;8.70;99.90;;;;;;5026463;28;20218;-79
2022/09/22 03:50:58;;;;;;;7.50;5.30;;;8.60;99.90;;;;;;5026604;28;20215;-79
2022/09/22 03:53:26;;;;;;;6.03;4.80;;;8.60;99.90;;;;;;5028782;28;20191;-80
2022/09/22 03:56:05;;;;;;;5.90;4.57;;;8.60;99.90;;;;;;5026246;28;20202;-80
2022/09/22 03:58:33;;;;;;;6.60;4.20;;;8.70;99.90;;;;;;5047075;28;20559;-79
2022/09/22 04:01:01;;;;;;;6.30;4.20;;;8.70;99.90;;;;;;5025829;28;20219;-79
2022/09/22 04:03:28;;;;;;;4.03;3.70;;;8.80;99.90;;;;;;5017953;28;20681;-85
2022/09/22 04:05:55;;;;;;;4.23;3.77;;;8.70;99.90;;;;;;5031880;28;20210;-80
2022/09/22 04:08:26;;;;;;;4.73;3.37;;;8.70;99.90;;;;;;5025789;28;20298;-82
2022/09/22 04:10:56;;;;;;;4.33;3.10;;;8.70;99.90;;;;;;5030833;28;20218;-82
2022/09/22 04:13:24;;;;;;;4.23;3.80;;;8.50;99.90;;;;;;5022987;28;20196;-79
2022/09/22 04:15:51;;;;;;;5.37;3.63;;;8.50;99.90;;;;;;5025087;28;20199;-79
2022/09/22 04:18:19;;;;;;;7.07;4.43;;;8.50;99.90;;;;;;5027243;28;20195;-81
2022/09/22 04:20:46;;;;;;;6.50;4.43;;;8.40;99.90;;;;;;5030436;28;20207;-82
2022/09/22 04:23:15;;;;;;;5.53;4.30;;;8.30;99.90;;;;;;5028142;28;20552;-82
2022/09/22 04:25:42;;;;;;;5.67;4.10;;;8.30;99.90;;;;;;5030214;28;20199;-83
2022/09/22 04:28:11;;;;;;;5.23;3.73;;;8.40;99.90;;;;;;5030789;28;20207;-82
2022/09/22 04:30:39;;;;;;;4.43;3.60;;;8.50;99.90;;;;;;5022663;28;20206;-82
2022/09/22 04:33:06;;;;;;;5.93;3.57;;;8.50;99.90;;;;;;5031114;28;20274;-79
2022/09/22 04:35:33;;;;;;;6.00;4.13;;;8.50;99.90;;;;;;5025820;28;20203;-79
2022/09/22 04:38:01;;;;;;;4.77;3.97;;;8.50;99.90;;;;;;5025796;28;20187;-82
2022/09/22 04:40:28;;;;;;;3.80;3.43;;;8.60;99.90;;;;;;5023087;28;20208;-78
2022/09/22 04:42:56;;;;;;;5.67;3.50;;;8.60;99.90;;;;;;5018962;28;20234;-79
2022/09/22 04:45:25;;;;;;;4.70;3.20;;;8.50;99.90;;;;;;5025379;28;20214;-79
2022/09/22 04:47:53;;;;;;;6.87;3.67;;;8.50;99.90;;;;;;5023042;28;20203;-82
2022/09/22 04:50:22;;;;;;;6.20;3.37;;;8.50;99.90;;;;;;5026419;28;20219;-83
2022/09/22 04:52:52;;;;;;;4.27;3.27;;;8.60;99.90;;;;;;5049562;28;20226;-82
2022/09/22 04:55:21;;;;;;;3.77;3.47;;;8.60;99.90;;;;;;5027003;28;20230;-82
2022/09/22 04:57:49;;;;;;;4.63;3.43;;;8.50;99.90;;;;;;5024196;28;20194;-81
2022/09/22 05:00:20;;;;;;;4.63;3.50;;;8.40;99.90;;;;;;5024989;28;20215;-82
2022/09/22 05:02:50;;;;;;;5.73;3.63;;;8.40;99.90;;;;;;5028790;28;20222;-82
2022/09/22 05:05:17;;;;;;;3.90;3.37;;;8.40;99.90;;;;;;5031251;28;20626;-80
2022/09/22 05:07:46;;;;;;;4.10;3.67;;;8.30;99.90;;;;;;5030737;28;20199;-81
2022/09/22 05:10:16;;;;;;;4.47;3.63;;;8.40;99.90;;;;;;5030165;28;20219;-82
2022/09/22 05:12:44;;;;;;;8.10;3.63;;;8.40;99.90;;;;;;5025748;28;20223;-82
2022/09/22 05:15:14;;;;;;;5.20;3.67;;;8.40;99.90;;;;;;5020083;28;20200;-82
2022/09/22 05:17:48;;;;;;;6.53;3.60;;;8.50;99.90;;;;;;5030884;28;20199;-81
2022/09/22 05:20:17;;;;;;;7.57;4.03;;;8.30;99.90;;;;;;5047609;28;20206;-83
2022/09/22 05:22:46;;;;;;;4.63;3.87;;;8.20;99.90;;;;;;5034699;28;20223;-81
2022/09/22 05:25:15;;;;;;;5.27;4.03;;;8.30;99.90;;;;;;5022388;28;20191;-82
2022/09/22 05:27:47;;;;;;;5.80;3.93;;;8.40;99.90;;;;;;5025266;28;20203;-82
2022/09/22 05:30:15;;;;;;;6.17;4.07;;;8.30;99.90;;;;;;5026043;28;20601;-82
2022/09/22 05:32:44;;;;;;;6.83;4.53;;;8.30;99.90;;;;;;5042225;28;20234;-84
2022/09/22 05:35:11;;;;;;;6.53;4.50;;;8.20;99.90;;;;;;5028907;28;20206;-82
2022/09/22 05:37:43;;;;;;;6.30;4.80;;;8.10;99.90;;;;;;5028786;28;20218;-82
2022/09/22 05:40:12;;;;;;;6.70;5.60;;;8.00;99.90;;;;;;5031096;28;20554;-82
2022/09/22 05:42:41;;;;;;;7.53;5.27;;;8.20;99.90;;;;;;5025917;28;20222;-82
2022/09/22 05:45:09;;;;;;;7.97;4.80;;;8.20;99.90;;;;;;5013713;28;20206;-82
2022/09/22 05:47:37;;;;;;;6.97;5.23;;;8.20;99.90;;;;;;5025930;28;20203;-83
2022/09/22 05:50:05;;;;;;;10.03;6.20;;;8.10;99.90;;;;;;5034969;28;20210;-82
2022/09/22 05:52:34;;;;;;;10.50;5.13;;;8.10;99.90;;;;;;5033304;28;20231;-83
2022/09/22 05:55:03;;;;;;;10.93;6.13;;;8.20;99.90;;;;;;5043184;28;20210;-80
2022/09/22 05:57:30;;;;;;;8.87;6.30;;;8.40;99.90;;;;;;5027351;28;20210;-79
2022/09/22 05:59:58;;;;;;;10.07;6.63;;;8.50;99.90;;;;;;5030525;28;20564;-79
2022/09/22 06:02:26;;;;;;;7.93;6.33;;;8.50;99.90;;;;;;5026790;28;20223;-80
2022/09/22 06:04:54;;;;;;;7.27;5.47;;;8.50;99.90;;;;;;5017671;28;20203;-79
2022/09/22 06:07:22;;;;;;;7.00;5.87;;;8.60;99.90;;;;;;5019509;28;20207;-79
2022/09/22 06:09:50;;;;;;;7.67;5.50;;;8.70;99.90;;;;;;5023485;28;20215;-79
2022/09/22 06:12:19;;;;;;;6.43;5.73;;;8.80;99.90;;;;;;5014571;28;20223;-82
2022/09/22 06:14:47;;;;;;;6.87;5.00;;;8.90;99.90;;;;;;5016554;28;20380;-79
2022/09/22 06:17:14;;;;;;;7.70;4.93;;;9.00;99.90;;;;;;5021972;28;20218;-81
2022/09/22 06:19:42;;;;;;;9.10;4.83;;;9.10;99.90;;;;;;5030089;28;20199;-79
2022/09/22 06:22:11;;;;;;;6.63;4.30;;;9.20;99.90;;;;;;5028455;28;20223;-79
2022/09/22 06:24:39;;;;;;;4.40;4.00;;;9.20;99.90;;;;;;5020413;28;20199;-80
2022/09/22 06:27:06;;;;;;;5.03;4.00;;;9.40;99.90;;;;;;5019150;28;20210;-79
2022/09/22 06:29:36;;;;;;;5.73;4.40;;;9.40;99.90;;;;;;5019567;28;20242;-79
2022/09/22 06:32:06;;;;;;;6.93;4.30;;;9.60;99.90;;;;;;5023806;28;20575;-79
2022/09/22 06:34:34;;;;;;;7.07;4.33;;;9.60;99.90;;;;;;5024591;28;20203;-79
2022/09/22 06:37:02;;;;;;;8.63;4.83;;;9.70;99.90;;;;;;5037241;28;20202;-79
2022/09/22 06:39:31;;;;;;;4.43;4.03;;;9.80;99.90;;;;;;5023131;28;20203;-79
2022/09/22 06:41:59;;;;;;;5.03;4.37;;;9.80;99.90;;;;;;5037707;28;20234;-79
2022/09/22 06:44:28;;;;;;;10.00;4.93;;;9.90;99.90;;;;;;5020857;28;20210;-79
2022/09/22 06:46:57;;;;;;;6.93;4.57;;;10.10;99.90;;;;;;5032199;28;20195;-79
2022/09/22 06:49:25;;;;;;;5.93;4.30;;;10.30;99.90;;;;;;5032640;28;20670;-80
2022/09/22 06:51:52;;;;;;;7.30;4.23;;;10.30;99.90;;;;;;5032485;28;20229;-79
2022/09/22 06:54:19;;;;;;;7.87;5.13;;;10.40;99.90;;;;;;5027325;28;20210;-79
2022/09/22 06:56:47;;;;;;;7.70;4.60;;;10.40;99.90;;;;;;5024657;28;20204;-80
2022/09/22 06:59:15;;;;;;;6.07;4.83;;;10.50;99.90;;;;;;5033886;28;20206;-79
2022/09/22 07:01:44;;;;;;;6.53;4.93;;;10.70;99.90;;;;;;5031370;28;20747;-80
2022/09/22 07:04:13;;;;;;;6.60;5.37;;;10.70;99.90;;;;;;5029276;28;20744;-80
2022/09/22 07:06:42;;;;;;;6.63;4.50;;;10.70;99.90;;;;;;5031892;28;20203;-80
2022/09/22 07:09:11;;;;;;;7.60;5.77;;;10.90;99.90;;;;;;5033329;28;20203;-79
2022/09/22 07:11:38;;;;;;;7.93;5.53;;;11.00;99.90;;;;;;5036845;28;20715;-79
2022/09/22 07:14:07;;;;;;;8.97;5.70;;;11.10;99.90;;;;;;5037134;28;20569;-80
2022/09/22 07:16:34;;;;;;;7.20;4.70;;;11.20;99.90;;;;;;5034700;28;20199;-79
2022/09/22 07:19:03;;;;;;;5.23;4.60;;;11.30;99.90;;;;;;5049228;28;20677;-80
2022/09/22 07:21:35;;;;;;;10.23;5.07;;;11.40;99.90;;;;;;5031690;28;20218;-79
2022/09/22 07:24:03;;;;;;;12.53;6.23;;;11.70;99.90;;;;;;5020327;28;20207;-79
2022/09/22 07:26:33;;;;;;;7.93;4.53;;;12.20;99.90;;;;;;5042840;28;20221;-79
2022/09/22 07:29:03;;;;;;;7.40;4.70;;;12.50;99.90;;;;;;5019288;28;20203;-78
2022/09/22 07:31:33;;;;;;;7.27;4.60;;;12.40;99.90;;;;;;5023341;28;20238;-78
2022/09/22 07:34:01;;;;;;;5.78;4.25;;;12.60;99.90;;;;;;5022420;28;20565;-78
2022/09/22 07:36:30;;;;;;;7.20;3.97;;;12.80;99.90;;;;;;5021013;28;20206;-79
2022/09/22 07:39:05;;;;;;;7.43;4.10;;;13.00;99.90;;;;;;5025430;28;20670;-79
2022/09/22 07:41:40;;;;;;;5.68;4.22;;;13.00;99.90;;;;;;5021946;28;20222;-78
2022/09/22 07:46:54;;;;;;;5.45;3.50;;;13.00;99.90;;;;;;5016796;28;20191;-79
2022/09/22 07:49:22;;;;;;;3.83;3.17;;;13.40;99.90;;;;;;5028136;28;20210;-80
2022/09/22 07:51:53;;;;;;;4.70;3.13;;;13.50;99.90;;;;;;5024361;28;20233;-79
2022/09/22 07:54:23;;;;;;;5.03;3.35;;;13.40;99.90;;;;;;5025830;28;21617;-79
2022/09/22 07:56:54;;;;;;;5.55;3.20;;;13.80;99.90;;;;;;5030238;28;20199;-79
2022/09/22 07:59:21;;;;;;;5.35;3.40;;;13.50;99.90;;;;;;5028728;28;20207;-81
2022/09/22 08:01:49;;;;;;;4.47;3.40;;;13.40;99.90;;;;;;5022910;28;20215;-82
2022/09/22 08:04:21;;;;;;;5.00;3.28;;;13.30;99.90;;;;;;5027537;28;20216;-80
2022/09/22 08:06:52;;;;;;;4.68;3.85;;;13.30;99.90;;;;;;5021096;28;20249;-80
2022/09/22 08:09:19;;;;;;;5.13;3.47;;;13.40;99.90;;;;;;5027791;28;20198;-79
2022/09/22 08:11:48;;;;;;;4.15;3.00;;;13.40;99.90;;;;;;5026196;28;20588;-79
2022/09/22 08:14:17;;;;;;;4.90;3.85;;;13.40;99.90;;;;;;5027448;28;20202;-79
2022/09/22 08:16:45;;;;;;;5.18;4.32;;;13.50;99.90;;;;;;5024005;28;20210;-78
2022/09/22 08:19:14;;;;;;;3.80;2.90;;;13.50;99.90;;;;;;5028092;28;20195;-82
2022/09/22 08:21:43;;;;;;;3.95;3.13;;;13.70;99.90;;;;;;5020645;28;20595;-80
2022/09/22 08:24:13;;;;;;;6.03;3.83;;;13.70;99.90;;;;;;5027149;28;20222;-79
2022/09/22 08:26:43;;;;;;;4.78;3.10;;;13.80;99.90;;;;;;5028706;28;20200;-80
2022/09/22 08:29:12;;;;;;;4.20;3.00;;;13.80;99.90;;;;;;5024645;28;20203;-79
2022/09/22 08:31:44;;;;;;;5.88;3.60;;;13.80;99.90;;;;;;5031319;28;20632;-80
2022/09/22 08:34:12;;;;;;;3.88;3.30;;;13.90;99.90;;;;;;5031059;28;20212;-81
2022/09/22 08:36:45;;;;;;;3.65;3.35;;;14.00;99.90;;;;;;5022439;28;20213;-80
2022/09/22 08:39:12;;;;;;;4.38;3.10;;;14.10;99.90;;;;;;5033093;28;20746;-79
2022/09/22 08:41:48;;;;;;;3.83;2.50;;;14.10;99.90;;;;;;5027547;28;20215;-79
2022/09/22 08:44:21;;;;;;;3.38;2.30;;;14.20;99.90;;;;;;5018870;28;20558;-79
2022/09/22 08:46:49;;;;;;;3.22;1.92;;;14.20;99.90;;;;;;5030521;28;20206;-78
2022/09/22 08:52:16;;;;;;;2.80;2.00;;;14.20;99.90;;;;;;5027519;28;20227;-79
2022/09/22 08:54:45;;;;;;;4.95;2.45;;;14.20;99.90;;;;;;5032564;28;20209;-79
2022/09/22 08:57:26;;;;;;;4.32;2.25;;;14.20;99.90;;;;;;5028403;28;20210;-79
2022/09/22 09:00:01;;;;;;;3.72;2.33;;;14.20;99.90;;;;;;5021320;28;20199;-79
2022/09/22 09:02:40;;;;;;;3.38;2.53;;;14.40;99.90;;;;;;5027967;28;20218;-79
2022/09/22 09:05:40;;;;;;;3.65;2.40;;;14.40;99.90;;;;;;5024993;28;20198;-79
2022/09/22 09:08:23;;;;;;;5.30;2.67;;;14.50;99.90;;;;;;5020650;28;20206;-79
2022/09/22 09:10:55;;;;;;;2.47;2.20;;;14.70;99.90;;;;;;5026671;28;20234;-79
2022/09/22 09:13:47;;;;;;;4.00;2.00;;;14.60;99.90;;;;;;5024937;28;20210;-78
2022/09/22 09:16:29;;;;;;;4.05;2.17;;;14.70;99.90;;;;;;5022513;28;20195;-80
2022/09/22 09:19:06;;;;;;;2.63;2.10;;;14.80;99.70;;;;;;5026967;28;20210;-79
2022/09/22 09:21:37;;;;;;;4.70;2.40;;;14.90;99.90;;;;;;5037563;28;20221;-79
2022/09/22 09:24:11;;;;;;;4.10;2.17;;;15.00;98.40;;;;;;5024881;28;20199;-78
2022/09/22 09:26:38;;;;;;;2.92;2.05;;;15.10;98.50;;;;;;5026043;28;20671;-78
2022/09/22 09:29:11;;;;;;;2.70;1.88;;;15.20;98.90;;;;;;5023248;28;20206;-79
2022/09/22 09:31:45;;;;;;;2.65;2.08;;;15.40;99.10;;;;;;5027162;28;20238;-79
2022/09/22 09:34:16;;;;;;;3.20;1.60;;;15.40;99.80;;;;;;5039147;28;20211;-78
2022/09/22 09:36:50;;;;;;;2.67;1.55;;;15.50;97.30;;;;;;5023558;28;20648;-78
2022/09/22 09:39:26;;;;;;;1.90;1.38;;;15.60;94.70;;;;;;5021978;28;20822;-78
2022/09/22 09:41:55;;;;;;;1.70;0.90;;;15.80;93.60;;;;;;5023849;28;20214;-78
2022/09/22 09:44:26;;;;;;;1.23;0.88;;;15.80;92.70;;;;;;5017553;28;20222;-78
2022/09/22 09:47:02;;;;;;;2.08;0.98;;;15.90;92.60;;;;;;5025130;28;20206;-79
2022/09/22 09:49:29;;;;;;;2.40;1.33;;;16.00;92.40;;;;;;5029019;28;20209;-79
2022/09/22 09:52:00;;;;;;;3.42;1.23;;;16.10;93.10;;;;;;5028637;28;20222;-79
2022/09/22 09:54:30;;;;;;;1.77;1.67;;;16.10;92.90;;;;;;5020460;28;20206;-79
2022/09/22 09:57:04;;;;;;;1.13;1.00;;;16.00;93.90;;;;;;5024246;28;20198;-79
2022/09/22 10:02:21;;;;;;;2.10;1.40;;;16.20;92.80;;;;;;5025297;28;20215;-78
2022/09/22 10:04:51;;;;;;;2.10;1.50;;;16.30;92.20;;;;;;5041333;28;20206;-79
2022/09/22 10:07:22;;;;;;;1.95;0.95;;;16.50;93.00;;;;;;5025658;28;20206;-78
2022/09/22 10:09:52;;;;;;;3.17;1.20;;;16.60;93.40;;;;;;5019358;28;20199;-79
2022/09/22 10:12:25;;;;;;;3.47;2.08;;;16.70;93.00;;;;;;5022980;28;20223;-79
2022/09/22 10:15:22;;;;;;;2.33;1.30;;;16.90;93.10;;;;;;5028417;28;20530;-80
2022/09/22 10:17:54;;;;;;;1.98;1.00;;;16.90;90.90;;;;;;5049937;22;20239;-78
2022/09/22 10:20:25;;;;;;;1.77;1.10;;;16.80;90.50;;;;;;5008071;28;20291;-78
2022/09/22 10:22:54;;;;;;;1.50;1.10;;;16.90;90.90;;;;;;5039503;28;20278;-78
2022/09/22 10:25:25;;;;;;;1.00;0.90;;;16.70;90.00;;;;;;5010179;28;20215;-79
2022/09/22 10:28:04;;;;;;;2.28;0.95;;;16.40;90.20;;;;;;5008641;28;20238;-78
2022/09/22 10:30:36;;;;;;;1.98;1.10;;;16.40;91.70;;;;;;5006829;28;20222;-81
2022/09/22 10:33:15;;;;;;;3.63;1.77;;;16.40;92.50;;;;;;5008993;28;20203;-79
2022/09/22 10:35:45;;;;;;;3.35;1.30;;;16.50;93.40;;;;;;5004579;28;20683;-79
2022/09/22 10:38:19;;;;;;;1.65;1.00;;;16.60;91.70;;;;;;5003415;28;20215;-78
2022/09/22 10:41:08;;;;;;;1.10;1.00;;;16.70;92.10;;;;;;5023227;28;20202;-80
2022/09/22 10:43:58;;;;;;;1.55;1.08;;;17.00;91.80;;;;;;5095601;27;20556;-81
2022/09/22 10:46:50;;;;;;;5.70;1.83;;;16.90;90.80;;;;;;5083545;28;20197;-79
2022/09/22 10:49:44;;;;;;;1.20;1.10;;;17.30;90.40;;;;;;5060035;28;20193;-79
2022/09/22 10:52:17;;;;;;;1.38;1.10;;;17.70;91.10;;;;;;5061379;28;20667;-79
2022/09/22 10:55:21;;;;;;;1.48;0.98;;;17.70;88.40;;;;;;5062816;28;20197;-79
2022/09/22 10:58:26;;;;;;;1.10;0.63;;;17.90;88.30;;;;;;5069013;28;20741;-78
2022/09/22 11:01:09;;;;;;;1.10;0.70;;;17.70;84.00;;;;;;5061068;28;20204;-80
2022/09/22 11:04:07;;;;;;;1.40;0.90;;;17.30;84.00;;;;;;5061464;28;20228;-79
2022/09/22 11:12:48;;;;;;;0.90;0.73;;;17.00;79.10;;;;;;5064494;28;20190;-79
2022/09/22 11:15:41;;;;;;;3.17;0.88;;;17.10;77.90;;;;;;5063714;28;20203;-78
2022/09/22 11:18:40;;;;;;;1.42;0.80;;;17.00;78.80;;;;;;5061676;28;20225;-81
2022/09/22 11:21:26;;;;;;;1.20;0.80;;;17.10;81.90;;;;;;5097434;28;20221;-80
2022/09/22 11:24:08;;;;;;;1.92;0.90;;;17.00;83.70;;;;;;5065244;28;20228;-79
2022/09/22 11:26:54;;;;;;;2.45;1.00;;;17.40;84.20;;;;;;5062641;28;20202;-79
2022/09/22 11:29:57;;;;;;;3.15;1.02;;;17.90;78.40;;;;;;5060649;28;20201;-79
2022/09/22 11:32:42;;;;;;;1.10;1.00;;;17.80;74.20;;;;;;5064840;28;20189;-78
2022/09/22 11:35:42;;;;;;;1.30;1.00;;;18.10;75.80;;;;;;5064682;28;20202;-78
2022/09/22 11:38:32;;;;;;;1.10;0.95;;;17.80;70.40;;;;;;5056409;28;20595;-79
2022/09/22 11:41:38;;;;;;;2.03;0.98;;;17.80;72.20;;;;;;5057847;28;20194;-80
2022/09/22 11:44:46;;;;;;;1.15;0.80;;;18.00;74.50;;;;;;5068328;28;20214;-79
2022/09/22 11:47:46;;;;;;;1.35;0.70;;;17.80;71.70;;;;;;4990189;28;20620;-79
2022/09/22 11:50:42;;;;;;;1.35;0.70;;;17.70;71.60;;;;;;4974180;28;20704;-80
2022/09/22 11:53:51;;;;;;;1.20;0.90;;;17.90;70.50;;;;;;5055374;28;20510;-79
2022/09/22 11:56:37;;;;;;;0.82;0.73;;;18.30;72.00;;;;;;5044718;28;20205;-79
2022/09/22 11:59:19;;;;;;;1.13;0.85;;;18.70;66.80;;;;;;5041723;28;20226;-78
2022/09/22 12:01:51;;;;;;;1.88;0.80;;;18.90;66.60;;;;;;5049930;28;20652;-80
2022/09/22 12:04:29;;;;;;;1.20;0.90;;;18.70;64.30;;;;;;5042394;28;20234;-79
2022/09/22 12:07:02;;;;;;;1.15;0.95;;;18.70;63.90;;;;;;5045666;28;20182;-78
2022/09/22 12:09:43;;;;;;;1.60;0.90;;;18.50;63.30;;;;;;5080341;28;20205;-78
2022/09/22 12:12:18;;;;;;;1.92;1.00;;;18.90;64.50;;;;;;5044762;28;20546;-80
2022/09/22 12:14:59;;;;;;;0.88;0.77;;;19.60;65.30;;;;;;5043275;28;20198;-78
2022/09/22 12:17:35;;;;;;;1.88;1.02;;;20.10;61.70;;;;;;5044033;28;20221;-78
2022/09/22 12:20:21;;;;;;;1.80;1.10;;;20.00;58.90;;;;;;5039856;28;20568;-78
2022/09/22 12:23:12;;;;;;;1.02;0.90;;;20.00;59.20;;;;;;5042520;28;20214;-78
2022/09/22 12:25:50;;;;;;;2.08;0.70;;;20.50;59.00;;;;;;5045612;28;20700;-78
2022/09/22 12:28:26;;;;;;;1.60;0.63;;;20.40;53.00;;;;;;5042896;28;20219;-78
2022/09/22 12:31:03;;;;;;;0.75;0.70;;;20.70;51.00;;;;;;5076061;28;20202;-78
2022/09/22 12:33:33;;;;;;;1.25;0.80;;;20.40;53.10;;;;;;5082031;28;20197;-78
2022/09/22 12:36:05;;;;;;;2.15;0.80;;;19.60;57.70;;;;;;5079427;28;20198;-78
2022/09/22 12:38:33;;;;;;;1.63;0.95;;;19.60;56.00;;;;;;5046021;28;20222;-78
2022/09/22 12:41:03;;;;;;;1.00;0.70;;;20.00;53.20;;;;;;5047108;28;20218;-78
2022/09/22 12:43:37;;;;;;;0.50;0.50;;;21.00;51.10;;;;;;5048400;28;20219;-78
2022/09/22 12:46:28;;;;;;;0.98;0.70;;;21.10;48.20;;;;;;5044397;28;20655;-78
2022/09/22 12:48:59;;;;;;;0.77;0.60;;;21.80;46.90;;;;;;5040849;28;20218;-78
2022/09/22 12:51:36;;;;;;;0.75;0.60;;;22.00;49.30;;;;;;5045323;28;20203;-78
2022/09/22 12:54:40;;;;;;;1.35;0.63;;;22.90;46.40;;;;;;5045752;28;20202;-78
2022/09/22 12:57:43;;;;;;;0.50;0.50;;;22.40;42.60;;;;;;5010075;28;20222;-78
2022/09/22 13:00:43;;;;;;;0.82;0.73;;;21.60;44.60;;;;;;5043593;28;20182;-79
2022/09/22 13:03:47;;;;;;;1.92;0.90;;;21.50;47.00;;;;;;5078800;28;20547;-78
2022/09/22 13:06:57;;;;;;;1.25;0.60;;;21.80;45.40;;;;;;5040300;28;20194;-78
2022/09/22 13:09:37;;;;;;;1.25;0.50;;;21.70;44.90;;;;;;5043189;28;20198;-78
2022/09/22 13:12:30;;;;;;;1.08;0.60;;;22.80;42.80;;;;;;5073099;28;20194;-78
2022/09/22 13:15:18;;;;;;;0.73;0.73;;;22.80;43.20;;;;;;5053764;28;20550;-78
2022/09/22 13:17:57;;;;;;;0.60;0.57;;;23.50;41.10;;;;;;5048395;28;20240;-78
2022/09/22 13:20:32;;;;;;;1.15;1.02;;;23.00;40.90;;;;;;5045323;28;20228;-78
2022/09/22 13:23:20;;;;;;;0.88;0.70;;;22.20;41.80;;;;;;5046329;28;20214;-79
2022/09/22 13:25:52;;;;;;;0.73;0.73;;;22.30;43.70;;;;;;5043750;28;20199;-78
2022/09/22 13:28:24;;;;;;;1.10;0.90;;;23.10;44.00;;;;;;5047388;28;20233;-79
2022/09/22 13:31:19;;;;;;;0.95;0.60;;;22.80;39.90;;;;;;5049987;28;20590;-81
2022/09/22 13:33:50;;;;;;;0.80;0.70;;;22.10;42.00;;;;;;5043946;28;20214;-79
2022/09/22 13:36:22;;;;;;;1.75;0.70;;;22.10;42.10;;;;;;5046126;28;20199;-79
2022/09/22 13:38:54;;;;;;;2.22;1.15;;;22.50;41.30;;;;;;5046856;28;20214;-79
2022/09/22 13:41:23;;;;;;;0.82;0.82;;;22.90;41.20;;;;;;5050338;28;20194;-78